Time;durP1;ratioP1;P1;durP2;ratioP2;P2;SDS_P1;SDS_P2;PMS_P1;PMS_P2;Temp;Humidity;BMP_temperature;BMP_pressure;BME280_temperature;BME280_humidity;BME280_pressure;Samples;Min_cycle;Max_cycle;Signal;HPM_P1;HPM_P2
2023/12/17 00:01:07;;;;;;;6.20;4.40;;;;;;;3.63;81.59;100093.28;105824;1256;61048;-28
2023/12/17 00:03:35;;;;;;;5.60;4.50;;;;;;;3.52;81.95;100088.18;105702;1253;73921;-28
2023/12/17 00:06:02;;;;;;;10.30;5.20;;;;;;;3.37;82.65;100078.91;105857;1253;74294;-27
2023/12/17 00:08:29;;;;;;;11.30;4.70;;;;;;;3.19;83.39;100077.67;105668;1253;73243;-28
2023/12/17 00:10:57;;;;;;;6.20;3.50;;;;;;;3.29;83.60;100080.23;105811;1259;61126;-27
2023/12/17 00:13:24;;;;;;;10.40;5.80;;;;;;;3.77;81.59;100078.02;105524;1258;61149;-28
2023/12/17 00:15:52;;;;;;;9.00;5.10;;;;;;;3.78;80.91;100074.05;105442;1254;73790;-28
2023/12/17 00:18:19;;;;;;;7.50;4.80;;;;;;;3.62;81.38;100073.73;105509;1253;74434;-28
2023/12/17 00:20:46;;;;;;;8.70;4.90;;;;;;;3.47;82.15;100074.45;105503;1253;72637;-27
2023/12/17 00:23:13;;;;;;;7.70;4.60;;;;;;;3.31;82.89;100078.30;105460;1253;61094;-28
2023/12/17 00:25:40;;;;;;;6.20;3.90;;;;;;;3.42;83.16;100076.35;105505;1257;61162;-28
2023/12/17 00:28:07;;;;;;;9.30;5.20;;;;;;;3.88;81.00;100070.58;105723;1256;73876;-29
2023/12/17 00:30:34;;;;;;;9.10;5.20;;;;;;;3.82;80.65;100068.41;105534;1253;73280;-28
2023/12/17 00:33:01;;;;;;;8.60;5.10;;;;;;;3.79;80.94;100070.59;105505;1253;72520;-27
2023/12/17 00:35:29;;;;;;;8.30;4.80;;;;;;;3.52;81.90;100066.02;105488;1253;61098;-28
2023/12/17 00:37:55;;;;;;;8.10;4.70;;;;;;;3.30;83.15;100069.21;105624;1257;61295;-28
2023/12/17 00:40:22;;;;;;;7.80;4.30;;;;;;;3.47;83.13;100070.86;105581;1253;73805;-28
2023/12/17 00:42:49;;;;;;;8.70;5.20;;;;;;;3.88;81.44;100068.35;105764;1252;74300;-28
2023/12/17 00:45:16;;;;;;;6.90;4.80;;;;;;;3.92;80.84;100062.34;105560;1253;72646;-27
2023/12/17 00:47:43;;;;;;;8.40;4.80;;;;;;;3.82;81.02;100055.86;105500;1253;61029;-28
2023/12/17 00:50:11;;;;;;;9.70;6.10;;;;;;;3.64;81.73;100056.83;105645;1257;61133;-28
2023/12/17 00:52:38;;;;;;;9.30;5.20;;;;;;;3.37;83.02;100055.60;105823;1253;74293;-28
2023/12/17 00:55:05;;;;;;;10.30;5.00;;;;;;;3.53;83.18;100057.73;105831;1253;74430;-28
2023/12/17 00:57:33;;;;;;;6.50;4.50;;;;;;;3.78;81.99;100046.39;105595;1253;72646;-28
2023/12/17 01:00:00;;;;;;;8.30;5.40;;;;;;;3.83;81.52;100054.26;105613;1253;61157;-28
2023/12/17 01:02:27;;;;;;;8.30;4.80;;;;;;;3.69;81.81;100049.80;105652;1257;61182;-28
2023/12/17 01:04:54;;;;;;;10.70;5.90;;;;;;;3.55;82.44;100052.38;105840;1253;73840;-27
2023/12/17 01:07:21;;;;;;;9.00;4.50;;;;;;;3.38;83.39;100051.27;105784;1252;74391;-27
2023/12/17 01:09:48;;;;;;;10.80;6.00;;;;;;;3.53;83.40;100049.36;105503;1253;72740;-27
2023/12/17 01:12:15;;;;;;;8.50;5.70;;;;;;;3.87;81.76;100046.55;105479;1253;61143;-28
2023/12/17 01:14:42;;;;;;;9.20;4.80;;;;;;;3.94;81.03;100037.19;105535;1258;61188;-28
2023/12/17 01:17:09;;;;;;;9.40;5.60;;;;;;;3.78;81.53;100035.23;105712;1253;73800;-27
2023/12/17 01:19:37;;;;;;;16.10;6.30;;;;;;;3.62;82.14;100036.46;105575;1253;74327;-27
2023/12/17 01:22:04;;;;;;;8.00;4.80;;;;;;;3.50;82.60;100032.15;105492;1253;72622;-28
2023/12/17 01:24:32;;;;;;;7.80;5.30;;;;;;;3.76;82.24;100026.67;105377;1253;61124;-28
2023/12/17 01:26:59;;;;;;;11.90;5.90;;;;;;;4.17;80.42;100018.09;105514;1253;61153;-27
2023/12/17 01:29:27;;;;;;;9.00;5.50;;;;;;;4.23;79.70;100013.56;105665;1253;73619;-27
2023/12/17 01:31:54;;;;;;;10.90;5.80;;;;;;;4.10;79.74;100005.14;105630;1257;74905;-27
2023/12/17 01:34:22;;;;;;;10.50;6.40;;;;;;;3.86;80.61;100000.02;105674;1253;72424;-28
2023/12/17 01:36:49;;;;;;;9.10;5.20;;;;;;;3.66;81.39;100000.64;105530;1253;61059;-27
2023/12/17 01:39:17;;;;;;;11.50;5.50;;;;;;;3.66;82.02;99998.93;105534;1258;61108;-28
2023/12/17 01:41:46;;;;;;;14.20;5.90;;;;;;;4.20;80.09;99992.00;105592;1253;73732;-27
2023/12/17 01:44:14;;;;;;;10.50;5.60;;;;;;;4.36;79.03;99988.96;105575;1253;74320;-28
2023/12/17 01:46:41;;;;;;;10.70;5.40;;;;;;;4.19;79.25;99985.55;105512;1253;72581;-28
2023/12/17 01:49:08;;;;;;;10.00;6.00;;;;;;;3.91;80.04;99979.41;105483;1259;61046;-27
2023/12/17 01:51:36;;;;;;;11.10;6.10;;;;;;;3.69;80.73;99973.02;105622;1258;61169;-28
2023/12/17 01:54:03;;;;;;;9.40;4.60;;;;;;;3.61;81.40;99973.31;105686;1253;72864;-28
2023/12/17 01:56:30;;;;;;;7.80;5.30;;;;;;;4.03;80.41;99973.98;105813;1253;74104;-27
2023/12/17 01:58:57;;;;;;;8.30;5.50;;;;;;;4.32;78.82;99976.92;105687;1253;72698;-27
2023/12/17 02:01:24;;;;;;;9.40;5.70;;;;;;;4.23;78.75;99971.09;105672;1253;61117;-27
2023/12/17 02:03:51;;;;;;;9.70;5.30;;;;;;;4.03;79.27;99963.80;105811;1253;61109;-27
2023/12/17 02:06:18;;;;;;;11.70;6.60;;;;;;;3.78;80.13;99960.82;105861;1253;73765;-28
2023/12/17 02:08:45;;;;;;;10.80;7.10;;;;;;;3.60;80.89;99954.49;105570;1253;74932;-28
2023/12/17 02:11:12;;;;;;;14.10;4.60;;;;;;;3.75;80.96;99956.64;105460;1258;72500;-28
2023/12/17 02:13:39;;;;;;;11.30;6.80;;;;;;;4.26;79.15;99965.33;105509;1253;61043;-27
2023/12/17 02:16:07;;;;;;;10.80;5.90;;;;;;;4.27;78.46;99971.11;105547;1257;61198;-28
2023/12/17 02:18:34;;;;;;;11.10;5.80;;;;;;;4.11;78.56;99976.21;105308;1253;73828;-28
2023/12/17 02:21:01;;;;;;;11.90;6.60;;;;;;;3.88;79.43;99974.56;105576;1253;74332;-28
2023/12/17 02:23:29;;;;;;;12.40;6.90;;;;;;;3.68;80.37;99963.98;105519;1253;72460;-28
2023/12/17 02:25:56;;;;;;;9.20;5.40;;;;;;;3.62;81.06;99964.86;105483;1253;61232;-28
2023/12/17 02:28:23;;;;;;;9.70;6.00;;;;;;;4.06;79.83;99962.52;105723;1259;61110;-28
2023/12/17 02:30:49;;;;;;;11.70;6.20;;;;;;;4.29;78.28;99955.40;105752;1253;73819;-28
2023/12/17 02:33:16;;;;;;;11.90;6.60;;;;;;;4.21;78.21;99947.64;105726;1253;74742;-28
2023/12/17 02:35:44;;;;;;;13.60;6.70;;;;;;;3.96;78.87;99941.77;105543;1253;72855;-28
2023/12/17 02:38:11;;;;;;;12.90;6.40;;;;;;;3.77;79.48;99933.42;105472;1253;61165;-29
2023/12/17 02:40:38;;;;;;;8.70;4.60;;;;;;;3.52;80.86;99931.09;105468;1260;61155;-28
2023/12/17 02:43:05;;;;;;;8.80;5.20;;;;;;;3.83;80.25;99921.48;105775;1253;74367;-28
2023/12/17 02:45:32;;;;;;;11.90;7.70;;;;;;;4.20;78.50;99921.71;105817;1253;74857;-27
2023/12/17 02:47:58;;;;;;;9.90;5.70;;;;;;;4.17;78.18;99921.16;105823;1253;72586;-27
2023/12/17 02:50:26;;;;;;;10.60;6.30;;;;;;;4.00;78.57;99923.39;105768;1253;61146;-28
2023/12/17 02:52:53;;;;;;;11.30;7.70;;;;;;;3.76;79.59;99917.27;105523;1257;61091;-27
2023/12/17 02:55:20;;;;;;;10.10;5.80;;;;;;;3.57;80.27;99916.83;105606;1253;73875;-28
2023/12/17 02:57:46;;;;;;;8.90;4.90;;;;;;;3.69;80.42;99924.09;105629;1257;74362;-28
2023/12/17 03:00:14;;;;;;;7.90;5.60;;;;;;;4.04;79.01;99923.05;105496;1254;72666;-28
2023/12/17 03:02:45;;;;;;;9.30;5.90;;;;;;;4.00;78.57;99918.05;105302;1253;61206;-28
2023/12/17 03:05:13;;;;;;;11.00;6.40;;;;;;;3.85;79.14;99914.02;105522;1256;61131;-28
2023/12/17 03:07:40;;;;;;;17.40;8.10;;;;;;;3.72;79.58;99908.17;105751;1256;73966;-28
2023/12/17 03:10:08;;;;;;;9.50;5.80;;;;;;;3.52;80.52;99898.30;105690;1258;74163;-28
2023/12/17 03:12:35;;;;;;;12.00;5.90;;;;;;;3.64;80.80;99890.65;105763;1257;71774;-28
2023/12/17 03:15:03;;;;;;;12.60;6.40;;;;;;;3.92;79.31;99885.37;105747;1253;61040;-28
2023/12/17 03:17:31;;;;;;;12.20;5.70;;;;;;;4.05;78.63;99886.61;105411;1258;61129;-28
2023/12/17 03:19:58;;;;;;;11.40;6.80;;;;;;;3.91;78.93;99878.20;105536;1253;73705;-27
2023/12/17 03:22:25;;;;;;;11.30;6.70;;;;;;;3.75;79.39;99873.04;105506;1253;74205;-27
2023/12/17 03:24:52;;;;;;;10.20;6.10;;;;;;;3.49;80.65;99866.14;105574;1253;72716;-27
2023/12/17 03:27:19;;;;;;;7.30;5.20;;;;;;;3.72;80.40;99862.30;105520;1258;61171;-27
2023/12/17 03:29:46;;;;;;;10.20;6.20;;;;;;;4.20;78.36;99862.75;105496;1256;61209;-26
2023/12/17 03:32:15;;;;;;;13.90;7.10;;;;;;;4.18;77.85;99854.79;105479;1253;73624;-27
2023/12/17 03:34:42;;;;;;;11.90;7.20;;;;;;;4.03;78.14;99856.45;105523;1258;74376;-27
2023/12/17 03:37:09;;;;;;;11.20;6.30;;;;;;;3.83;79.10;99852.78;105770;1253;72636;-27
2023/12/17 03:39:36;;;;;;;13.00;7.10;;;;;;;3.68;79.64;99849.41;105737;1254;61275;-27
2023/12/17 03:42:03;;;;;;;9.70;5.10;;;;;;;3.64;80.23;99858.19;105675;1259;61243;-27
2023/12/17 03:44:30;;;;;;;12.50;5.90;;;;;;;4.12;78.76;99854.50;105541;1253;73528;-27
2023/12/17 03:46:57;;;;;;;10.10;6.40;;;;;;;4.26;77.61;99853.94;105547;1253;74429;-27
2023/12/17 03:49:24;;;;;;;9.80;5.50;;;;;;;4.07;78.39;99851.79;105530;1254;72820;-27
2023/12/17 03:51:51;;;;;;;13.70;6.70;;;;;;;3.80;79.63;99851.20;105527;1253;61106;-27
2023/12/17 03:54:18;;;;;;;13.40;7.70;;;;;;;3.62;80.57;99844.16;105477;1257;61183;-28
2023/12/17 03:56:46;;;;;;;12.50;5.30;;;;;;;3.42;81.81;99845.63;105365;1260;72761;-27
2023/12/17 03:59:15;;;;;;;12.80;5.90;;;;;;;3.83;80.78;99844.52;105764;1259;74313;-27
2023/12/17 04:01:46;;;;;;;8.10;4.90;;;;;;;4.20;79.08;99853.51;105649;1254;72351;-27
2023/12/17 04:04:13;;;;;;;10.70;6.00;;;;;;;4.10;79.15;99853.74;105551;1251;61133;-27
2023/12/17 04:06:43;;;;;;;9.80;6.70;;;;;;;3.86;79.90;99844.23;105799;1265;61515;-27
2023/12/17 04:09:10;;;;;;;9.80;6.40;;;;;;;3.56;81.39;99842.52;105529;1252;73585;-27
2023/12/17 04:11:37;;;;;;;11.70;6.10;;;;;;;3.40;82.50;99844.33;105576;1251;74332;-27
2023/12/17 04:14:04;;;;;;;9.10;5.70;;;;;;;3.65;82.10;99841.28;105704;1251;72653;-27
2023/12/17 04:16:31;;;;;;;10.80;6.50;;;;;;;3.92;80.87;99840.23;105857;1251;61046;-27
2023/12/17 04:18:58;;;;;;;10.00;5.60;;;;;;;3.92;81.22;99845.20;105942;1256;61166;-27
2023/12/17 04:21:25;;;;;;;8.30;5.20;;;;;;;3.72;82.53;99844.80;105901;1260;73818;-27
2023/12/17 04:23:53;;;;;;;9.30;6.10;;;;;;;3.50;84.00;99847.38;105955;1251;74174;-27
2023/12/17 04:26:21;;;;;;;10.90;4.80;;;;;;;3.39;85.88;99849.02;105922;1257;72548;-28
2023/12/17 04:28:47;;;;;;;9.30;5.20;;;;;;;3.80;84.33;99841.02;105904;1251;61111;-27
2023/12/17 04:31:14;;;;;;;9.10;5.30;;;;;;;3.85;84.12;99846.34;105679;1257;61057;-27
2023/12/17 04:33:42;;;;;;;9.50;5.20;;;;;;;3.78;84.37;99836.83;105785;1257;73640;-27
2023/12/17 04:36:10;;;;;;;8.80;4.60;;;;;;;3.58;85.68;99838.49;105705;1260;75493;-27
2023/12/17 04:38:37;;;;;;;9.20;4.60;;;;;;;3.29;87.27;99827.40;105649;1253;72737;-27
2023/12/17 04:41:05;;;;;;;5.50;3.40;;;;;;;3.56;87.13;99823.09;105666;1254;61053;-26
2023/12/17 04:43:32;;;;;;;9.60;5.60;;;;;;;3.77;85.73;99807.84;105638;1267;61094;-26
2023/12/17 04:45:59;;;;;;;5.70;4.10;;;;;;;3.68;86.31;99811.80;105620;1253;73848;-26
2023/12/17 04:48:25;;;;;;;5.70;4.10;;;;;;;3.56;86.70;99804.05;105707;1259;129198;-26
2023/12/17 04:50:53;;;;;;;5.30;4.20;;;;;;;3.27;88.23;99799.35;105530;1253;72662;-26
2023/12/17 04:53:20;;;;;;;7.90;4.50;;;;;;;3.58;87.57;99790.41;105489;1254;61818;-25
2023/12/17 04:55:47;;;;;;;8.30;4.10;;;;;;;3.73;86.48;99790.48;105495;1259;61145;-25
2023/12/17 04:58:14;;;;;;;4.60;3.50;;;;;;;3.68;86.45;99785.69;105542;1253;73788;-25
2023/12/17 05:00:41;;;;;;;9.70;4.70;;;;;;;3.45;87.31;99776.00;105556;1259;74224;-25
2023/12/17 05:03:09;;;;;;;7.00;4.30;;;;;;;3.42;87.70;99790.86;105485;1253;72435;-25
2023/12/17 05:05:36;;;;;;;5.30;4.20;;;;;;;3.72;86.31;99797.73;105339;1253;61053;-25
2023/12/17 05:08:04;;;;;;;4.50;3.30;;;;;;;3.72;85.99;99798.10;105483;1256;61176;-25
2023/12/17 05:10:31;;;;;;;4.80;4.00;;;;;;;3.61;86.45;99803.17;105654;1256;73625;-25
2023/12/17 05:12:58;;;;;;;5.90;3.90;;;;;;;3.43;87.28;99798.91;105645;1257;74877;-25
2023/12/17 05:15:25;;;;;;;7.40;4.20;;;;;;;3.49;87.18;99789.39;105817;1257;72495;-25
2023/12/17 05:17:52;;;;;;;6.10;3.70;;;;;;;3.69;85.81;99787.73;105681;1258;61061;-26
2023/12/17 05:20:19;;;;;;;5.90;3.80;;;;;;;3.79;85.01;99797.13;105635;1253;61260;-25
2023/12/17 05:22:46;;;;;;;6.90;4.50;;;;;;;3.54;85.73;99786.28;105776;1253;73815;-25
2023/12/17 05:25:13;;;;;;;5.30;3.60;;;;;;;3.36;87.03;99791.27;105771;1258;74385;-25
2023/12/17 05:27:43;;;;;;;6.90;4.10;;;;;;;3.57;86.48;99792.88;105522;1258;71344;-26
2023/12/17 05:30:11;;;;;;;5.30;3.40;;;;;;;3.76;85.16;99790.21;105539;1254;61043;-25
2023/12/17 05:32:39;;;;;;;4.80;3.10;;;;;;;3.67;85.04;99778.36;105369;1259;61151;-25
2023/12/17 05:35:07;;;;;;;5.30;3.20;;;;;;;3.50;85.68;99774.94;105548;1253;73776;-26
2023/12/17 05:37:34;;;;;;;6.40;4.00;;;;;;;3.45;86.24;99763.63;105635;1253;72875;-26
2023/12/17 05:40:01;;;;;;;7.40;5.00;;;;;;;3.74;84.92;99769.81;105831;1254;72550;-26
2023/12/17 05:42:28;;;;;;;4.40;3.60;;;;;;;3.69;84.75;99769.33;105645;1257;61245;-26
2023/12/17 05:44:56;;;;;;;7.80;3.70;;;;;;;3.53;85.46;99778.27;105290;1262;61165;-26
2023/12/17 05:47:23;;;;;;;4.90;3.50;;;;;;;3.31;86.71;99751.66;105490;1253;73810;-26
2023/12/17 05:49:50;;;;;;;8.30;4.20;;;;;;;3.59;85.97;99766.52;105550;1257;74162;-26
2023/12/17 05:52:17;;;;;;;4.90;3.50;;;;;;;3.62;85.47;99766.36;105482;1253;72666;-26
2023/12/17 05:54:44;;;;;;;5.00;3.80;;;;;;;3.57;85.56;99765.92;105476;1257;61208;-27
2023/12/17 05:57:11;;;;;;;7.60;4.50;;;;;;;3.38;86.21;99759.61;105615;1257;61100;-28
2023/12/17 05:59:38;;;;;;;5.30;3.90;;;;;;;3.39;86.80;99764.02;105748;1253;74217;-28
2023/12/17 06:02:06;;;;;;;6.50;3.90;;;;;;;3.66;85.43;99767.93;105586;1254;74430;-28
2023/12/17 06:04:33;;;;;;;8.00;4.30;;;;;;;3.58;85.26;99748.99;105754;1257;72578;-28
2023/12/17 06:07:00;;;;;;;8.00;4.40;;;;;;;3.49;85.70;99769.66;105502;1257;61058;-28
2023/12/17 06:09:27;;;;;;;4.50;2.80;;;;;;;3.35;86.52;99765.59;105511;1258;61146;-28
2023/12/17 06:11:55;;;;;;;7.60;3.60;;;;;;;3.65;85.46;99764.37;105574;1254;73869;-27
2023/12/17 06:14:47;;;;;;;6.00;3.70;;;;;;;3.72;85.11;99773.17;102626;1297;600129;-26
2023/12/17 06:17:15;;;;;;;5.40;3.90;;;;;;;3.67;85.15;99773.40;104758;1271;61123;-26
2023/12/17 06:19:44;;;;;;;7.80;3.60;;;;;;;3.49;85.84;99774.11;104743;1267;61105;-28
2023/12/17 06:22:15;;;;;;;6.20;4.40;;;;;;;3.66;85.59;99781.86;104829;1267;70771;-28
2023/12/17 06:24:43;;;;;;;5.00;3.50;;;;;;;3.87;84.27;99770.88;104820;1271;74307;-28
2023/12/17 06:27:15;;;;;;;5.20;3.50;;;;;;;3.90;83.86;99765.05;104798;1271;71391;-28
2023/12/17 06:29:43;;;;;;;5.90;3.50;;;;;;;3.62;84.94;99769.10;104644;1272;61119;-28
2023/12/17 06:32:11;;;;;;;5.50;3.10;;;;;;;3.52;85.62;99759.91;105122;1269;61187;-28
2023/12/17 06:34:39;;;;;;;9.00;3.60;;;;;;;3.80;84.63;99762.36;104875;1269;72250;-28
2023/12/17 06:44:48;;;;;;;5.00;3.30;;;;;;;3.69;84.87;99773.13;102719;1291;599021;-25
2023/12/17 06:47:17;;;;;;;5.70;3.10;;;;;;;4.01;83.75;99772.15;105041;1269;61230;-25
2023/12/17 06:49:55;;;;;;;6.50;3.50;;;;;;;4.10;83.06;99767.46;104841;1266;61168;-25
2023/12/17 06:52:23;;;;;;;10.40;3.50;;;;;;;3.94;83.82;99760.59;104872;1265;70911;-25
2023/12/17 06:54:50;;;;;;;6.50;3.60;;;;;;;3.80;84.48;99760.82;104845;1267;74310;-25
2023/12/17 06:57:18;;;;;;;7.40;3.80;;;;;;;3.58;86.09;99770.46;104695;1270;177004;-25
2023/12/17 06:59:46;;;;;;;9.60;5.00;;;;;;;3.96;84.86;99780.43;105122;1263;61041;-25
2023/12/17 07:02:15;;;;;;;6.10;3.50;;;;;;;3.99;84.75;99780.49;105619;1260;61272;-28
2023/12/17 07:10:53;;;;;;;4.50;3.20;;;;;;;3.83;87.11;99794.55;102714;1294;600109;-27
2023/12/17 07:13:21;;;;;;;4.80;3.30;;;;;;;4.01;85.54;99786.39;104822;1267;61160;-27
2023/12/17 07:15:49;;;;;;;10.80;5.00;;;;;;;3.94;85.37;99771.75;104827;1270;61259;-27
2023/12/17 07:25:53;;;;;;;9.70;5.10;;;;;;;4.09;84.44;99763.55;102691;1292;600123;-27
2023/12/17 07:28:21;;;;;;;7.00;4.80;;;;;;;4.07;84.20;99786.48;104858;1266;61165;-27
2023/12/17 07:30:48;;;;;;;6.60;3.90;;;;;;;3.81;85.37;99765.44;104863;1266;61157;-28
2023/12/17 07:33:16;;;;;;;6.40;3.90;;;;;;;3.68;86.35;99781.42;105104;1267;72177;-28
2023/12/17 07:35:45;;;;;;;8.90;4.20;;;;;;;3.99;85.39;99788.05;105087;1269;74253;-29
2023/12/17 07:38:12;;;;;;;6.90;4.30;;;;;;;4.07;84.64;99793.90;104783;1267;72352;-28
2023/12/17 07:40:40;;;;;;;9.00;5.40;;;;;;;3.97;85.03;99796.02;104953;1267;179515;-26
2023/12/17 07:43:08;;;;;;;12.40;4.40;;;;;;;3.73;86.09;99787.40;104838;1264;61164;-27
2023/12/17 07:45:36;;;;;;;9.40;4.20;;;;;;;3.79;86.38;99801.92;105123;1269;72613;-27
2023/12/17 07:48:04;;;;;;;15.80;4.20;;;;;;;4.08;85.06;99810.69;104799;1264;74349;-27
2023/12/17 07:50:34;;;;;;;8.50;4.40;;;;;;;4.08;84.43;99798.63;105051;1270;72678;-27
2023/12/17 07:53:03;;;;;;;8.70;3.80;;;;;;;3.89;85.09;99802.20;104994;1268;61218;-27
2023/12/17 07:55:30;;;;;;;6.90;3.70;;;;;;;3.69;86.10;99804.73;105177;1264;61068;-27
2023/12/17 07:57:58;;;;;;;6.50;4.40;;;;;;;3.74;86.08;99800.76;105129;1269;73026;-27
2023/12/17 08:00:26;;;;;;;7.00;3.30;;;;;;;3.99;84.71;99806.44;104913;1269;73478;-27
2023/12/17 08:02:53;;;;;;;5.20;3.40;;;;;;;4.01;84.11;99804.27;104916;1267;72694;-26
2023/12/17 08:05:21;;;;;;;7.70;3.90;;;;;;;3.86;84.48;99805.60;104913;1264;61164;-27
2023/12/17 08:07:49;;;;;;;6.20;3.50;;;;;;;3.60;85.51;99800.28;104862;1264;61144;-27
2023/12/17 08:10:18;;;;;;;3.90;3.00;;;;;;;3.66;85.56;99806.23;105137;1264;72135;-26
2023/12/17 08:12:46;;;;;;;5.90;3.80;;;;;;;3.97;84.30;99813.89;105077;1264;73349;-27
2023/12/17 08:15:14;;;;;;;4.50;2.60;;;;;;;3.86;84.31;99818.83;104875;1270;71438;-26
2023/12/17 08:17:42;;;;;;;6.30;3.70;;;;;;;3.67;84.72;99809.77;104966;1267;61054;-26
2023/12/17 08:27:47;;;;;;;5.70;3.30;;;;;;;3.78;84.71;99812.11;102689;1292;599422;-25
2023/12/17 08:30:17;;;;;;;4.90;3.40;;;;;;;3.52;85.97;99814.84;104798;1268;61195;-26
2023/12/17 08:32:46;;;;;;;5.60;3.30;;;;;;;3.47;86.36;99814.37;104869;1266;61060;-26
2023/12/17 08:41:51;;;;;;;5.00;3.10;;;;;;;3.58;86.03;99819.44;103160;1286;599294;-22
2023/12/17 08:44:22;;;;;;;3.60;2.30;;;;;;;3.42;87.18;99822.11;105022;1270;61167;-23
2023/12/17 08:46:51;;;;;;;4.00;2.70;;;;;;;3.59;86.72;99817.68;105053;1269;61178;-24
2023/12/17 08:49:18;;;;;;;5.90;2.70;;;;;;;3.95;85.19;99817.05;105101;1269;71869;-25
2023/12/17 08:51:47;;;;;;;3.40;2.40;;;;;;;3.89;84.86;99808.20;104847;1267;74303;-25
2023/12/17 08:54:14;;;;;;;4.40;2.80;;;;;;;3.76;85.38;99819.93;104838;1268;72742;-25
2023/12/17 08:56:43;;;;;;;5.00;2.80;;;;;;;3.45;86.55;99812.19;105072;1264;155755;-25
2023/12/17 08:59:10;;;;;;;2.70;2.20;;;;;;;3.59;86.64;99810.27;105208;1264;61201;-25
2023/12/17 09:01:38;;;;;;;2.40;2.00;;;;;;;3.89;85.36;99820.42;105200;1264;71001;-25
2023/12/17 09:11:43;;;;;;;4.50;2.80;;;;;;;3.76;86.50;99808.37;102801;1291;600072;-22
2023/12/17 09:14:11;;;;;;;6.00;2.70;;;;;;;4.02;85.75;99816.09;105092;1269;61116;-22
2023/12/17 09:16:39;;;;;;;3.50;2.70;;;;;;;3.89;86.54;99819.73;104861;1270;61060;-22
2023/12/17 09:19:07;;;;;;;5.80;3.00;;;;;;;3.76;87.17;99816.32;104880;1270;72225;-24
2023/12/17 09:21:35;;;;;;;4.20;3.10;;;;;;;3.61;88.40;99807.80;104831;1272;76700;-25
2023/12/17 09:24:04;;;;;;;3.80;2.80;;;;;;;3.97;87.62;99811.66;104865;1270;72606;-25
2023/12/17 09:26:32;;;;;;;3.50;2.50;;;;;;;4.01;86.71;99808.56;104744;1266;179176;-25
2023/12/17 09:28:59;;;;;;;9.30;4.80;;;;;;;3.81;87.46;99800.79;104991;1267;61113;-25
2023/12/17 09:31:27;;;;;;;6.60;3.80;;;;;;;3.69;88.67;99802.66;104831;1264;71242;-25
2023/12/17 09:41:35;;;;;;;7.70;4.70;;;;;;;4.10;87.30;99791.17;102721;1293;598763;-24
2023/12/17 09:44:06;;;;;;;5.10;3.50;;;;;;;3.78;88.37;99786.52;105330;1260;61216;-25
2023/12/17 09:46:37;;;;;;;7.70;4.30;;;;;;;4.03;87.83;99796.98;105230;1260;61223;-25
2023/12/17 09:49:05;;;;;;;6.20;3.90;;;;;;;4.17;86.81;99789.84;105258;1264;72161;-25
2023/12/17 09:51:35;;;;;;;7.10;4.50;;;;;;;4.12;86.62;99785.92;105517;1260;73288;-25
2023/12/17 09:54:03;;;;;;;7.20;4.30;;;;;;;3.92;87.80;99800.52;105428;1260;159705;-26
2023/12/17 10:04:10;;;;;;;8.40;4.10;;;;;;;4.18;87.04;99787.09;102811;1290;600242;-25
2023/12/17 10:14:24;;;;;;;7.80;4.70;;;;;;;4.17;87.31;99777.50;102742;1292;600202;-23
2023/12/17 10:16:52;;;;;;;6.10;4.90;;;;;;;4.02;88.06;99780.02;104815;1271;61069;-25
2023/12/17 10:19:20;;;;;;;6.40;4.70;;;;;;;3.86;88.74;99784.83;104854;1266;61118;-23
2023/12/17 10:21:49;;;;;;;6.50;4.10;;;;;;;4.08;88.27;99786.83;104902;1266;72217;-23
2023/12/17 10:31:55;;;;;;;5.30;4.00;;;;;;;4.16;88.02;99789.02;102618;1295;599561;-25
2023/12/17 10:34:23;;;;;;;4.90;3.40;;;;;;;4.48;86.33;99779.73;104760;1268;61087;-25
2023/12/17 10:36:52;;;;;;;5.10;3.50;;;;;;;4.39;86.09;99777.02;104592;1267;61110;-26
2023/12/17 10:39:19;;;;;;;7.20;4.60;;;;;;;4.21;87.18;99778.85;104793;1272;72530;-26
2023/12/17 10:41:48;;;;;;;6.40;3.30;;;;;;;4.15;87.89;99791.13;104813;1267;73168;-27
2023/12/17 10:44:16;;;;;;;5.80;4.80;;;;;;;4.38;87.06;99774.54;104712;1267;71393;-26
2023/12/17 10:46:44;;;;;;;5.30;3.60;;;;;;;4.39;86.56;99774.83;104663;1266;218718;-27
2023/12/17 10:49:12;;;;;;;4.80;3.80;;;;;;;4.32;86.95;99780.27;104895;1270;61112;-27
2023/12/17 10:51:43;;;;;;;9.90;4.30;;;;;;;4.22;87.38;99774.17;104904;1266;72205;-27
2023/12/17 11:01:54;;;;;;;5.00;3.50;;;;;;;4.18;87.87;99780.69;102769;1295;599755;-25
2023/12/17 11:04:22;;;;;;;4.20;3.10;;;;;;;4.00;88.86;99794.54;104863;1271;61156;-28
2023/12/17 11:06:51;;;;;;;6.90;4.50;;;;;;;4.25;88.02;99790.72;104875;1264;61177;-27
2023/12/17 11:09:19;;;;;;;9.40;4.80;;;;;;;4.37;87.31;99777.98;104845;1264;71021;-28
2023/12/17 11:11:47;;;;;;;6.10;3.50;;;;;;;4.20;87.82;99756.05;105123;1269;75575;-27
2023/12/17 11:14:15;;;;;;;5.00;3.00;;;;;;;4.09;88.60;99787.80;104888;1264;73729;-28
2023/12/17 11:16:43;;;;;;;5.70;4.60;;;;;;;4.29;87.92;99781.94;104801;1269;168879;-28
2023/12/17 11:19:12;;;;;;;5.90;4.30;;;;;;;4.43;87.20;99792.69;104917;1267;61141;-28
2023/12/17 11:21:41;;;;;;;9.60;4.30;;;;;;;4.51;86.46;99793.55;104877;1264;73381;-28
2023/12/17 11:24:10;;;;;;;5.80;3.80;;;;;;;4.28;87.67;99788.87;104846;1264;74439;-28
2023/12/17 11:26:40;;;;;;;4.70;3.40;;;;;;;4.20;88.54;99782.33;104855;1272;73399;-28
2023/12/17 11:29:39;;;;;;;6.10;4.50;;;;;;;4.47;87.55;99774.98;104815;1263;61115;-28
2023/12/17 11:32:07;;;;;;;7.40;4.10;;;;;;;4.45;87.50;99779.17;104867;1264;61089;-28
2023/12/17 11:34:35;;;;;;;6.00;4.20;;;;;;;4.27;88.29;99785.98;104821;1272;74124;-28
2023/12/17 11:44:48;;;;;;;10.50;4.80;;;;;;;4.22;88.92;99778.29;103439;1283;600103;-27
2023/12/17 11:47:25;;;;;;;6.30;3.40;;;;;;;4.12;89.75;99797.82;105198;1262;61244;-27
2023/12/17 11:50:05;;;;;;;5.50;3.80;;;;;;;4.43;88.43;99790.61;105218;1268;61099;-29
2023/12/17 11:52:33;;;;;;;7.00;4.00;;;;;;;4.55;87.44;99793.52;104887;1272;70974;-27
2023/12/17 11:55:04;;;;;;;8.00;5.10;;;;;;;4.33;88.33;99795.70;105144;1269;73320;-27
2023/12/17 12:05:15;;;;;;;6.20;3.70;;;;;;;4.51;88.05;99797.86;102646;1294;599400;-28
2023/12/17 12:07:43;;;;;;;7.60;4.20;;;;;;;4.20;89.46;99785.09;104749;1272;61161;-28
2023/12/17 12:10:11;;;;;;;5.80;3.60;;;;;;;4.39;89.34;99798.36;104766;1266;61154;-28
2023/12/17 12:12:39;;;;;;;7.30;5.60;;;;;;;4.60;88.25;99787.98;104754;1274;72234;-29
2023/12/17 12:15:08;;;;;;;7.10;5.10;;;;;;;4.60;87.80;99795.55;104780;1272;73079;-28
2023/12/17 12:17:40;;;;;;;7.50;4.40;;;;;;;4.48;88.29;99796.05;104661;1274;72707;-28
2023/12/17 12:20:13;;;;;;;6.20;4.90;;;;;;;4.41;88.85;99787.95;104669;1265;62511;-28
2023/12/17 12:22:42;;;;;;;5.50;3.80;;;;;;;4.56;88.60;99785.76;104823;1270;61070;-28
2023/12/17 12:25:20;;;;;;;4.90;3.70;;;;;;;4.80;87.21;99795.17;104832;1268;71012;-28
2023/12/17 12:27:47;;;;;;;11.70;3.90;;;;;;;4.72;87.39;99782.80;104847;1271;73054;-28
2023/12/17 12:37:37;;;;;;;5.10;4.20;;;;;;;4.94;86.56;99801.58;102664;1292;600785;-26
2023/12/17 12:40:06;;;;;;;7.10;5.00;;;;;;;4.67;87.73;99796.77;104798;1268;61139;-27
2023/12/17 12:42:39;;;;;;;7.90;4.10;;;;;;;4.55;88.84;99799.55;104637;1267;61044;-27
2023/12/17 12:45:10;;;;;;;6.10;4.80;;;;;;;4.84;87.37;99797.40;104769;1266;72340;-27
2023/12/17 12:47:38;;;;;;;5.20;3.30;;;;;;;4.79;87.47;99817.05;104740;1266;74324;-27
2023/12/17 12:50:08;;;;;;;6.40;4.20;;;;;;;4.86;87.23;99817.08;104702;1267;201764;-28
2023/12/17 12:52:36;;;;;;;5.60;4.30;;;;;;;4.59;88.51;99824.15;104873;1267;61111;-27
2023/12/17 12:55:04;;;;;;;7.20;4.60;;;;;;;4.67;88.69;99820.01;104840;1262;61135;-27
2023/12/17 13:05:10;;;;;;;5.40;3.70;;;;;;;4.72;88.57;99820.96;102725;1295;599836;-26
2023/12/17 13:15:22;;;;;;;4.30;3.40;;;;;;;4.79;88.33;99823.08;102655;1294;599476;-26
2023/12/17 13:17:50;;;;;;;5.70;3.80;;;;;;;4.89;88.51;99821.62;104770;1271;61196;-28
2023/12/17 13:20:18;;;;;;;5.80;3.30;;;;;;;5.04;87.40;99823.01;104839;1270;61069;-28
2023/12/17 13:22:46;;;;;;;9.20;3.80;;;;;;;5.07;87.19;99822.52;104837;1271;72232;-28
2023/12/17 13:25:14;;;;;;;6.90;4.40;;;;;;;4.85;88.25;99815.27;104792;1271;73461;-28
2023/12/17 13:27:42;;;;;;;6.70;4.20;;;;;;;4.71;89.37;99841.68;104815;1273;72679;-29
2023/12/17 13:30:10;;;;;;;9.40;3.60;;;;;;;5.08;88.03;99846.21;104831;1269;213065;-29
2023/12/17 13:32:40;;;;;;;5.90;4.10;;;;;;;5.13;87.04;99827.20;104863;1264;61156;-28